sensor_id;sensor_type;location;lat;lon;timestamp;P1;durP1;ratioP1;P2;durP2;ratioP2
37781;SDS011;23621;50.878;4.584;2023-10-31T00:00:42;14.27;;;10.73;;
37781;SDS011;23621;50.878;4.584;2023-10-31T00:03:29;13.38;;;10.60;;
37781;SDS011;23621;50.878;4.584;2023-10-31T00:06:17;13.18;;;10.52;;
37781;SDS011;23621;50.878;4.584;2023-10-31T00:09:04;12.95;;;10.80;;
37781;SDS011;23621;50.878;4.584;2023-10-31T00:11:54;13.60;;;10.25;;
37781;SDS011;23621;50.878;4.584;2023-10-31T00:14:41;13.85;;;10.50;;
37781;SDS011;23621;50.878;4.584;2023-10-31T00:17:29;16.05;;;11.38;;
37781;SDS011;23621;50.878;4.584;2023-10-31T00:20:16;16.63;;;10.77;;
37781;SDS011;23621;50.878;4.584;2023-10-31T00:23:03;13.38;;;10.75;;
37781;SDS011;23621;50.878;4.584;2023-10-31T00:25:51;11.65;;;9.88;;
37781;SDS011;23621;50.878;4.584;2023-10-31T00:28:38;10.75;;;9.63;;
37781;SDS011;23621;50.878;4.584;2023-10-31T00:31:25;10.13;;;9.05;;
37781;SDS011;23621;50.878;4.584;2023-10-31T00:34:13;10.35;;;8.38;;
37781;SDS011;23621;50.878;4.584;2023-10-31T00:37:00;9.60;;;8.30;;
37781;SDS011;23621;50.878;4.584;2023-10-31T00:39:47;10.77;;;8.77;;
37781;SDS011;23621;50.878;4.584;2023-10-31T00:42:34;10.40;;;8.30;;
37781;SDS011;23621;50.878;4.584;2023-10-31T00:45:22;11.50;;;7.88;;
37781;SDS011;23621;50.878;4.584;2023-10-31T00:48:09;10.40;;;7.90;;
37781;SDS011;23621;50.878;4.584;2023-10-31T00:50:56;9.43;;;8.00;;
37781;SDS011;23621;50.878;4.584;2023-10-31T00:53:43;10.40;;;7.10;;
37781;SDS011;23621;50.878;4.584;2023-10-31T00:56:31;8.93;;;7.50;;
37781;SDS011;23621;50.878;4.584;2023-10-31T00:59:18;8.30;;;7.07;;
37781;SDS011;23621;50.878;4.584;2023-10-31T01:02:08;8.13;;;7.13;;
37781;SDS011;23621;50.878;4.584;2023-10-31T01:04:55;8.77;;;6.30;;
37781;SDS011;23621;50.878;4.584;2023-10-31T01:07:42;6.60;;;6.00;;
37781;SDS011;23621;50.878;4.584;2023-10-31T01:10:30;6.70;;;5.68;;
37781;SDS011;23621;50.878;4.584;2023-10-31T01:13:17;6.68;;;5.45;;
37781;SDS011;23621;50.878;4.584;2023-10-31T01:16:05;6.53;;;5.55;;
37781;SDS011;23621;50.878;4.584;2023-10-31T01:18:53;6.85;;;5.70;;
37781;SDS011;23621;50.878;4.584;2023-10-31T01:21:40;6.50;;;5.45;;
37781;SDS011;23621;50.878;4.584;2023-10-31T01:24:27;5.50;;;4.97;;
37781;SDS011;23621;50.878;4.584;2023-10-31T01:27:14;8.82;;;5.60;;
37781;SDS011;23621;50.878;4.584;2023-10-31T01:30:02;5.97;;;5.40;;
37781;SDS011;23621;50.878;4.584;2023-10-31T01:32:50;6.85;;;5.22;;
37781;SDS011;23621;50.878;4.584;2023-10-31T01:35:37;7.70;;;5.68;;
37781;SDS011;23621;50.878;4.584;2023-10-31T01:38:25;6.55;;;5.85;;
37781;SDS011;23621;50.878;4.584;2023-10-31T01:41:12;6.57;;;5.88;;
37781;SDS011;23621;50.878;4.584;2023-10-31T01:43:59;6.47;;;5.78;;
37781;SDS011;23621;50.878;4.584;2023-10-31T01:46:47;6.65;;;5.90;;
37781;SDS011;23621;50.878;4.584;2023-10-31T01:49:35;6.53;;;5.45;;
37781;SDS011;23621;50.878;4.584;2023-10-31T01:52:23;6.25;;;5.25;;
37781;SDS011;23621;50.878;4.584;2023-10-31T01:55:10;6.90;;;5.90;;
37781;SDS011;23621;50.878;4.584;2023-10-31T01:57:58;6.00;;;5.40;;
37781;SDS011;23621;50.878;4.584;2023-10-31T02:00:47;6.57;;;5.78;;
37781;SDS011;23621;50.878;4.584;2023-10-31T02:03:34;6.07;;;5.38;;
37781;SDS011;23621;50.878;4.584;2023-10-31T02:06:21;7.50;;;5.57;;
37781;SDS011;23621;50.878;4.584;2023-10-31T02:09:09;6.80;;;4.95;;
37781;SDS011;23621;50.878;4.584;2023-10-31T02:11:56;5.47;;;4.97;;
37781;SDS011;23621;50.878;4.584;2023-10-31T02:14:43;7.05;;;5.43;;
37781;SDS011;23621;50.878;4.584;2023-10-31T02:17:30;7.43;;;5.53;;
37781;SDS011;23621;50.878;4.584;2023-10-31T02:20:18;5.97;;;5.40;;
37781;SDS011;23621;50.878;4.584;2023-10-31T02:23:05;5.75;;;5.25;;
37781;SDS011;23621;50.878;4.584;2023-10-31T02:25:52;7.45;;;5.45;;
37781;SDS011;23621;50.878;4.584;2023-10-31T02:28:40;5.97;;;5.40;;
37781;SDS011;23621;50.878;4.584;2023-10-31T02:31:28;8.32;;;5.35;;
37781;SDS011;23621;50.878;4.584;2023-10-31T02:34:15;6.88;;;5.45;;
37781;SDS011;23621;50.878;4.584;2023-10-31T02:37:02;5.85;;;5.25;;
37781;SDS011;23621;50.878;4.584;2023-10-31T02:39:49;5.80;;;5.13;;
37781;SDS011;23621;50.878;4.584;2023-10-31T02:42:37;5.75;;;5.22;;
37781;SDS011;23621;50.878;4.584;2023-10-31T02:45:24;6.03;;;5.38;;
37781;SDS011;23621;50.878;4.584;2023-10-31T02:48:12;5.80;;;5.20;;
37781;SDS011;23621;50.878;4.584;2023-10-31T02:50:59;7.68;;;5.82;;
37781;SDS011;23621;50.878;4.584;2023-10-31T02:53:47;6.38;;;5.75;;
37781;SDS011;23621;50.878;4.584;2023-10-31T02:56:34;5.63;;;5.22;;
37781;SDS011;23621;50.878;4.584;2023-10-31T02:59:21;6.07;;;5.35;;
37781;SDS011;23621;50.878;4.584;2023-10-31T03:02:08;6.05;;;5.45;;
37781;SDS011;23621;50.878;4.584;2023-10-31T03:04:56;5.72;;;5.13;;
37781;SDS011;23621;50.878;4.584;2023-10-31T03:07:43;6.38;;;5.78;;
37781;SDS011;23621;50.878;4.584;2023-10-31T03:10:31;6.22;;;5.22;;
37781;SDS011;23621;50.878;4.584;2023-10-31T03:13:18;5.97;;;5.43;;
37781;SDS011;23621;50.878;4.584;2023-10-31T03:16:06;5.95;;;5.35;;
37781;SDS011;23621;50.878;4.584;2023-10-31T03:18:53;6.70;;;5.93;;
37781;SDS011;23621;50.878;4.584;2023-10-31T03:21:40;6.10;;;5.50;;
37781;SDS011;23621;50.878;4.584;2023-10-31T03:24:28;6.13;;;5.47;;
37781;SDS011;23621;50.878;4.584;2023-10-31T03:27:15;6.18;;;5.60;;
37781;SDS011;23621;50.878;4.584;2023-10-31T03:30:02;7.28;;;6.28;;
37781;SDS011;23621;50.878;4.584;2023-10-31T03:32:50;6.95;;;6.25;;
37781;SDS011;23621;50.878;4.584;2023-10-31T03:35:37;7.43;;;6.72;;
37781;SDS011;23621;50.878;4.584;2023-10-31T03:38:25;6.90;;;6.20;;
37781;SDS011;23621;50.878;4.584;2023-10-31T03:41:12;9.15;;;7.30;;
37781;SDS011;23621;50.878;4.584;2023-10-31T03:44:00;7.40;;;6.65;;
37781;SDS011;23621;50.878;4.584;2023-10-31T03:46:47;8.57;;;7.78;;
37781;SDS011;23621;50.878;4.584;2023-10-31T03:49:37;8.85;;;8.05;;
37781;SDS011;23621;50.878;4.584;2023-10-31T03:52:26;9.80;;;7.97;;
37781;SDS011;23621;50.878;4.584;2023-10-31T03:55:13;8.00;;;7.20;;
37781;SDS011;23621;50.878;4.584;2023-10-31T03:58:00;7.88;;;7.07;;
37781;SDS011;23621;50.878;4.584;2023-10-31T04:00:47;8.30;;;6.80;;
37781;SDS011;23621;50.878;4.584;2023-10-31T04:03:35;7.90;;;7.07;;
37781;SDS011;23621;50.878;4.584;2023-10-31T04:06:22;7.65;;;6.85;;
37781;SDS011;23621;50.878;4.584;2023-10-31T04:09:09;8.15;;;7.35;;
37781;SDS011;23621;50.878;4.584;2023-10-31T04:11:56;7.75;;;7.03;;
37781;SDS011;23621;50.878;4.584;2023-10-31T04:14:43;8.68;;;7.13;;
37781;SDS011;23621;50.878;4.584;2023-10-31T04:17:31;6.93;;;6.32;;
37781;SDS011;23621;50.878;4.584;2023-10-31T04:20:18;7.07;;;6.38;;
37781;SDS011;23621;50.878;4.584;2023-10-31T04:23:06;9.20;;;6.88;;
37781;SDS011;23621;50.878;4.584;2023-10-31T04:25:53;7.05;;;6.35;;
37781;SDS011;23621;50.878;4.584;2023-10-31T04:28:40;7.82;;;6.88;;
37781;SDS011;23621;50.878;4.584;2023-10-31T04:31:28;8.15;;;7.43;;
37781;SDS011;23621;50.878;4.584;2023-10-31T04:34:27;7.68;;;6.97;;
37781;SDS011;23621;50.878;4.584;2023-10-31T04:37:14;8.35;;;7.47;;
37781;SDS011;23621;50.878;4.584;2023-10-31T04:40:01;8.45;;;7.65;;
37781;SDS011;23621;50.878;4.584;2023-10-31T04:42:49;8.48;;;7.68;;
37781;SDS011;23621;50.878;4.584;2023-10-31T04:45:36;8.00;;;7.30;;
37781;SDS011;23621;50.878;4.584;2023-10-31T04:48:24;8.55;;;7.65;;
37781;SDS011;23621;50.878;4.584;2023-10-31T04:51:11;7.75;;;6.97;;
37781;SDS011;23621;50.878;4.584;2023-10-31T04:54:01;11.07;;;7.53;;
37781;SDS011;23621;50.878;4.584;2023-10-31T04:56:48;8.45;;;7.57;;
37781;SDS011;23621;50.878;4.584;2023-10-31T04:59:36;8.88;;;7.50;;
37781;SDS011;23621;50.878;4.584;2023-10-31T05:02:24;8.63;;;7.72;;
37781;SDS011;23621;50.878;4.584;2023-10-31T05:05:11;9.00;;;8.20;;
37781;SDS011;23621;50.878;4.584;2023-10-31T05:07:59;9.98;;;8.63;;
37781;SDS011;23621;50.878;4.584;2023-10-31T05:10:46;10.02;;;8.38;;
37781;SDS011;23621;50.878;4.584;2023-10-31T05:13:34;9.45;;;8.40;;
37781;SDS011;23621;50.878;4.584;2023-10-31T05:16:21;10.10;;;9.10;;
37781;SDS011;23621;50.878;4.584;2023-10-31T05:19:09;10.52;;;9.43;;
37781;SDS011;23621;50.878;4.584;2023-10-31T05:21:56;12.48;;;9.07;;
37781;SDS011;23621;50.878;4.584;2023-10-31T05:24:44;11.07;;;9.40;;
37781;SDS011;23621;50.878;4.584;2023-10-31T05:27:31;11.15;;;9.93;;
37781;SDS011;23621;50.878;4.584;2023-10-31T05:30:20;11.52;;;9.65;;
37781;SDS011;23621;50.878;4.584;2023-10-31T05:33:08;10.70;;;9.27;;
37781;SDS011;23621;50.878;4.584;2023-10-31T05:35:56;11.43;;;10.25;;
37781;SDS011;23621;50.878;4.584;2023-10-31T05:38:43;10.07;;;9.07;;
37781;SDS011;23621;50.878;4.584;2023-10-31T05:41:33;10.35;;;9.25;;
37781;SDS011;23621;50.878;4.584;2023-10-31T05:44:21;12.65;;;9.70;;
37781;SDS011;23621;50.878;4.584;2023-10-31T05:47:09;10.30;;;9.10;;
37781;SDS011;23621;50.878;4.584;2023-10-31T05:49:56;11.00;;;9.52;;
37781;SDS011;23621;50.878;4.584;2023-10-31T05:52:44;10.60;;;9.50;;
37781;SDS011;23621;50.878;4.584;2023-10-31T05:55:31;10.00;;;9.02;;
37781;SDS011;23621;50.878;4.584;2023-10-31T05:58:21;10.40;;;9.32;;
37781;SDS011;23621;50.878;4.584;2023-10-31T06:01:10;11.25;;;9.40;;
37781;SDS011;23621;50.878;4.584;2023-10-31T06:03:57;9.32;;;8.43;;
37781;SDS011;23621;50.878;4.584;2023-10-31T06:06:45;9.95;;;9.05;;
37781;SDS011;23621;50.878;4.584;2023-10-31T06:09:32;9.30;;;8.38;;
37781;SDS011;23621;50.878;4.584;2023-10-31T06:12:20;9.90;;;8.88;;
37781;SDS011;23621;50.878;4.584;2023-10-31T06:15:07;11.20;;;9.13;;
37781;SDS011;23621;50.878;4.584;2023-10-31T06:17:55;10.77;;;9.07;;
37781;SDS011;23621;50.878;4.584;2023-10-31T06:20:42;8.98;;;8.07;;
37781;SDS011;23621;50.878;4.584;2023-10-31T06:23:29;9.52;;;8.63;;
37781;SDS011;23621;50.878;4.584;2023-10-31T06:26:18;11.88;;;8.93;;
37781;SDS011;23621;50.878;4.584;2023-10-31T06:29:06;11.95;;;8.98;;
37781;SDS011;23621;50.878;4.584;2023-10-31T06:32:13;11.70;;;8.77;;
37781;SDS011;23621;50.878;4.584;2023-10-31T06:35:00;10.75;;;8.90;;
37781;SDS011;23621;50.878;4.584;2023-10-31T06:37:47;8.85;;;7.95;;
37781;SDS011;23621;50.878;4.584;2023-10-31T06:40:35;9.27;;;8.02;;
37781;SDS011;23621;50.878;4.584;2023-10-31T06:43:22;9.45;;;8.20;;
37781;SDS011;23621;50.878;4.584;2023-10-31T06:46:09;11.07;;;8.77;;
37781;SDS011;23621;50.878;4.584;2023-10-31T06:48:56;8.98;;;8.07;;
37781;SDS011;23621;50.878;4.584;2023-10-31T06:51:44;8.45;;;7.35;;
37781;SDS011;23621;50.878;4.584;2023-10-31T06:54:31;8.23;;;7.40;;
37781;SDS011;23621;50.878;4.584;2023-10-31T06:57:19;8.13;;;7.38;;
37781;SDS011;23621;50.878;4.584;2023-10-31T07:00:07;7.78;;;7.07;;
37781;SDS011;23621;50.878;4.584;2023-10-31T07:02:58;8.85;;;7.57;;
37781;SDS011;23621;50.878;4.584;2023-10-31T07:05:46;8.20;;;7.40;;
37781;SDS011;23621;50.878;4.584;2023-10-31T07:08:34;7.95;;;6.97;;
37781;SDS011;23621;50.878;4.584;2023-10-31T07:11:21;7.82;;;6.75;;
37781;SDS011;23621;50.878;4.584;2023-10-31T07:14:09;8.63;;;7.15;;
37781;SDS011;23621;50.878;4.584;2023-10-31T07:16:56;8.82;;;6.78;;
37781;SDS011;23621;50.878;4.584;2023-10-31T07:19:44;6.93;;;6.28;;
37781;SDS011;23621;50.878;4.584;2023-10-31T07:22:31;8.43;;;6.82;;
37781;SDS011;23621;50.878;4.584;2023-10-31T07:25:18;7.45;;;6.57;;
37781;SDS011;23621;50.878;4.584;2023-10-31T07:28:06;7.35;;;6.18;;
37781;SDS011;23621;50.878;4.584;2023-10-31T07:30:53;7.78;;;6.75;;
37781;SDS011;23621;50.878;4.584;2023-10-31T07:33:40;6.97;;;6.28;;
37781;SDS011;23621;50.878;4.584;2023-10-31T07:36:27;7.50;;;6.80;;
37781;SDS011;23621;50.878;4.584;2023-10-31T07:39:15;6.60;;;6.00;;
37781;SDS011;23621;50.878;4.584;2023-10-31T07:42:02;7.05;;;6.35;;
37781;SDS011;23621;50.878;4.584;2023-10-31T07:44:49;7.13;;;5.90;;
37781;SDS011;23621;50.878;4.584;2023-10-31T07:47:37;6.80;;;6.15;;
37781;SDS011;23621;50.878;4.584;2023-10-31T07:50:24;7.25;;;6.28;;
37781;SDS011;23621;50.878;4.584;2023-10-31T07:53:12;7.35;;;6.72;;
37781;SDS011;23621;50.878;4.584;2023-10-31T07:55:59;7.22;;;6.53;;
37781;SDS011;23621;50.878;4.584;2023-10-31T07:58:46;7.20;;;6.50;;
37781;SDS011;23621;50.878;4.584;2023-10-31T08:01:34;6.78;;;6.18;;
37781;SDS011;23621;50.878;4.584;2023-10-31T08:04:22;7.10;;;6.43;;
37781;SDS011;23621;50.878;4.584;2023-10-31T08:07:09;7.00;;;6.30;;
37781;SDS011;23621;50.878;4.584;2023-10-31T08:09:56;7.03;;;6.32;;
37781;SDS011;23621;50.878;4.584;2023-10-31T08:12:43;6.90;;;5.88;;
37781;SDS011;23621;50.878;4.584;2023-10-31T08:15:31;6.45;;;5.50;;
37781;SDS011;23621;50.878;4.584;2023-10-31T08:18:19;7.32;;;5.70;;
37781;SDS011;23621;50.878;4.584;2023-10-31T08:21:06;5.75;;;5.10;;
37781;SDS011;23621;50.878;4.584;2023-10-31T08:23:54;8.30;;;5.82;;
37781;SDS011;23621;50.878;4.584;2023-10-31T08:26:41;9.40;;;5.68;;
37781;SDS011;23621;50.878;4.584;2023-10-31T08:29:28;6.85;;;5.35;;
37781;SDS011;23621;50.878;4.584;2023-10-31T08:32:16;6.68;;;5.53;;
37781;SDS011;23621;50.878;4.584;2023-10-31T08:35:03;5.75;;;5.20;;
37781;SDS011;23621;50.878;4.584;2023-10-31T08:37:51;7.15;;;5.25;;
37781;SDS011;23621;50.878;4.584;2023-10-31T08:40:38;5.72;;;5.10;;
37781;SDS011;23621;50.878;4.584;2023-10-31T08:43:25;6.93;;;5.00;;
37781;SDS011;23621;50.878;4.584;2023-10-31T08:46:13;6.00;;;4.70;;
37781;SDS011;23621;50.878;4.584;2023-10-31T08:49:01;6.97;;;4.90;;
37781;SDS011;23621;50.878;4.584;2023-10-31T08:51:51;6.25;;;5.40;;
37781;SDS011;23621;50.878;4.584;2023-10-31T08:54:39;8.40;;;5.72;;
37781;SDS011;23621;50.878;4.584;2023-10-31T08:57:26;6.32;;;5.30;;
37781;SDS011;23621;50.878;4.584;2023-10-31T09:00:13;6.30;;;5.65;;
37781;SDS011;23621;50.878;4.584;2023-10-31T09:03:01;6.80;;;5.50;;
37781;SDS011;23621;50.878;4.584;2023-10-31T09:05:48;7.80;;;5.07;;
37781;SDS011;23621;50.878;4.584;2023-10-31T09:08:35;7.00;;;5.13;;
37781;SDS011;23621;50.878;4.584;2023-10-31T09:11:25;7.57;;;5.32;;
37781;SDS011;23621;50.878;4.584;2023-10-31T09:14:12;5.97;;;5.22;;
37781;SDS011;23621;50.878;4.584;2023-10-31T09:16:59;6.88;;;5.40;;
37781;SDS011;23621;50.878;4.584;2023-10-31T09:19:49;7.30;;;5.10;;
37781;SDS011;23621;50.878;4.584;2023-10-31T09:22:37;8.07;;;4.80;;
37781;SDS011;23621;50.878;4.584;2023-10-31T09:25:24;5.90;;;4.57;;
37781;SDS011;23621;50.878;4.584;2023-10-31T09:28:12;6.60;;;4.25;;
37781;SDS011;23621;50.878;4.584;2023-10-31T09:31:04;6.95;;;4.93;;
37781;SDS011;23621;50.878;4.584;2023-10-31T09:33:51;4.68;;;4.00;;
37781;SDS011;23621;50.878;4.584;2023-10-31T09:36:39;4.95;;;3.88;;
37781;SDS011;23621;50.878;4.584;2023-10-31T09:39:29;7.00;;;4.10;;
37781;SDS011;23621;50.878;4.584;2023-10-31T09:42:16;6.22;;;4.63;;
37781;SDS011;23621;50.878;4.584;2023-10-31T09:45:04;7.03;;;4.05;;
37781;SDS011;23621;50.878;4.584;2023-10-31T09:47:52;5.93;;;4.40;;
37781;SDS011;23621;50.878;4.584;2023-10-31T09:50:40;9.32;;;4.57;;
37781;SDS011;23621;50.878;4.584;2023-10-31T09:53:28;6.53;;;4.47;;
37781;SDS011;23621;50.878;4.584;2023-10-31T09:56:19;5.80;;;4.22;;
37781;SDS011;23621;50.878;4.584;2023-10-31T09:59:07;9.50;;;4.75;;
37781;SDS011;23621;50.878;4.584;2023-10-31T10:01:54;5.93;;;4.75;;
37781;SDS011;23621;50.878;4.584;2023-10-31T10:04:43;6.90;;;4.88;;
37781;SDS011;23621;50.878;4.584;2023-10-31T10:07:30;6.68;;;5.10;;
37781;SDS011;23621;50.878;4.584;2023-10-31T10:10:20;5.28;;;4.32;;
37781;SDS011;23621;50.878;4.584;2023-10-31T10:13:07;8.00;;;4.40;;
37781;SDS011;23621;50.878;4.584;2023-10-31T10:15:55;5.03;;;4.03;;
37781;SDS011;23621;50.878;4.584;2023-10-31T10:18:43;8.95;;;4.68;;
37781;SDS011;23621;50.878;4.584;2023-10-31T10:21:41;8.30;;;4.90;;
37781;SDS011;23621;50.878;4.584;2023-10-31T10:24:38;5.93;;;4.57;;
37781;SDS011;23621;50.878;4.584;2023-10-31T10:27:27;4.88;;;4.13;;
37781;SDS011;23621;50.878;4.584;2023-10-31T10:30:15;9.25;;;4.25;;
37781;SDS011;23621;50.878;4.584;2023-10-31T10:33:03;5.32;;;4.30;;
37781;SDS011;23621;50.878;4.584;2023-10-31T10:35:50;9.00;;;4.28;;
37781;SDS011;23621;50.878;4.584;2023-10-31T10:38:38;5.70;;;3.80;;
37781;SDS011;23621;50.878;4.584;2023-10-31T10:41:34;9.27;;;4.10;;
37781;SDS011;23621;50.878;4.584;2023-10-31T10:44:31;6.80;;;3.78;;
37781;SDS011;23621;50.878;4.584;2023-10-31T10:47:20;6.55;;;4.30;;
37781;SDS011;23621;50.878;4.584;2023-10-31T10:50:09;7.13;;;4.20;;
37781;SDS011;23621;50.878;4.584;2023-10-31T10:53:00;7.20;;;4.38;;
37781;SDS011;23621;50.878;4.584;2023-10-31T10:56:09;6.35;;;4.38;;
37781;SDS011;23621;50.878;4.584;2023-10-31T10:59:07;6.90;;;4.50;;
37781;SDS011;23621;50.878;4.584;2023-10-31T11:02:02;7.93;;;4.05;;
37781;SDS011;23621;50.878;4.584;2023-10-31T11:04:52;5.80;;;3.58;;
37781;SDS011;23621;50.878;4.584;2023-10-31T11:07:40;7.95;;;4.55;;
37781;SDS011;23621;50.878;4.584;2023-10-31T11:10:28;8.13;;;4.50;;
37781;SDS011;23621;50.878;4.584;2023-10-31T11:13:16;7.07;;;4.65;;
37781;SDS011;23621;50.878;4.584;2023-10-31T11:16:06;7.50;;;5.05;;
37781;SDS011;23621;50.878;4.584;2023-10-31T11:19:02;6.45;;;4.88;;
37781;SDS011;23621;50.878;4.584;2023-10-31T11:21:53;7.40;;;4.88;;
37781;SDS011;23621;50.878;4.584;2023-10-31T11:24:50;11.35;;;5.97;;
37781;SDS011;23621;50.878;4.584;2023-10-31T11:27:38;8.90;;;6.15;;
37781;SDS011;23621;50.878;4.584;2023-10-31T11:30:28;9.07;;;5.15;;
37781;SDS011;23621;50.878;4.584;2023-10-31T11:33:19;7.43;;;4.95;;
37781;SDS011;23621;50.878;4.584;2023-10-31T11:36:08;11.75;;;5.70;;
37781;SDS011;23621;50.878;4.584;2023-10-31T11:39:10;7.75;;;5.38;;
37781;SDS011;23621;50.878;4.584;2023-10-31T11:42:01;6.45;;;5.18;;
37781;SDS011;23621;50.878;4.584;2023-10-31T11:45:05;10.00;;;5.85;;
37781;SDS011;23621;50.878;4.584;2023-10-31T11:47:54;8.43;;;5.80;;
37781;SDS011;23621;50.878;4.584;2023-10-31T11:50:42;8.43;;;6.05;;
37781;SDS011;23621;50.878;4.584;2023-10-31T11:53:30;9.20;;;5.82;;
37781;SDS011;23621;50.878;4.584;2023-10-31T11:56:18;11.00;;;6.35;;
37781;SDS011;23621;50.878;4.584;2023-10-31T11:59:06;10.00;;;7.65;;
37781;SDS011;23621;50.878;4.584;2023-10-31T12:01:54;9.68;;;5.82;;
37781;SDS011;23621;50.878;4.584;2023-10-31T12:04:41;8.25;;;6.20;;
37781;SDS011;23621;50.878;4.584;2023-10-31T12:07:29;7.38;;;6.00;;
37781;SDS011;23621;50.878;4.584;2023-10-31T12:10:22;7.88;;;5.45;;
37781;SDS011;23621;50.878;4.584;2023-10-31T12:17:27;9.63;;;5.45;;
37781;SDS011;23621;50.878;4.584;2023-10-31T12:20:15;6.68;;;4.97;;
37781;SDS011;23621;50.878;4.584;2023-10-31T12:23:03;8.05;;;5.40;;
37781;SDS011;23621;50.878;4.584;2023-10-31T12:25:52;10.45;;;5.65;;
37781;SDS011;23621;50.878;4.584;2023-10-31T12:28:40;6.93;;;4.93;;
37781;SDS011;23621;50.878;4.584;2023-10-31T12:31:27;6.80;;;5.68;;
37781;SDS011;23621;50.878;4.584;2023-10-31T12:34:17;9.68;;;5.35;;
37781;SDS011;23621;50.878;4.584;2023-10-31T12:37:05;9.15;;;5.25;;
37781;SDS011;23621;50.878;4.584;2023-10-31T12:39:52;5.80;;;4.20;;
37781;SDS011;23621;50.878;4.584;2023-10-31T12:42:40;6.47;;;4.28;;
37781;SDS011;23621;50.878;4.584;2023-10-31T12:45:29;7.25;;;4.05;;
37781;SDS011;23621;50.878;4.584;2023-10-31T12:48:16;4.57;;;4.00;;
37781;SDS011;23621;50.878;4.584;2023-10-31T12:51:11;5.63;;;4.03;;
37781;SDS011;23621;50.878;4.584;2023-10-31T12:53:58;4.60;;;3.78;;
37781;SDS011;23621;50.878;4.584;2023-10-31T12:56:45;5.90;;;3.90;;
37781;SDS011;23621;50.878;4.584;2023-10-31T12:59:33;7.38;;;3.65;;
37781;SDS011;23621;50.878;4.584;2023-10-31T13:02:23;5.18;;;4.20;;
37781;SDS011;23621;50.878;4.584;2023-10-31T13:05:14;5.97;;;3.80;;
37781;SDS011;23621;50.878;4.584;2023-10-31T13:08:04;4.78;;;3.40;;
37781;SDS011;23621;50.878;4.584;2023-10-31T13:11:01;4.20;;;3.45;;
37781;SDS011;23621;50.878;4.584;2023-10-31T13:13:49;3.90;;;3.60;;
37781;SDS011;23621;50.878;4.584;2023-10-31T13:16:38;3.90;;;3.50;;
37781;SDS011;23621;50.878;4.584;2023-10-31T13:19:25;4.75;;;3.50;;
37781;SDS011;23621;50.878;4.584;2023-10-31T13:22:12;3.30;;;3.00;;
37781;SDS011;23621;50.878;4.584;2023-10-31T13:25:00;3.53;;;3.15;;
37781;SDS011;23621;50.878;4.584;2023-10-31T13:27:47;6.00;;;3.05;;
37781;SDS011;23621;50.878;4.584;2023-10-31T13:30:37;3.60;;;3.22;;
37781;SDS011;23621;50.878;4.584;2023-10-31T13:33:25;4.40;;;3.15;;
37781;SDS011;23621;50.878;4.584;2023-10-31T13:36:12;3.55;;;3.17;;
37781;SDS011;23621;50.878;4.584;2023-10-31T13:38:59;3.42;;;2.58;;
37781;SDS011;23621;50.878;4.584;2023-10-31T13:41:47;4.90;;;2.78;;
37781;SDS011;23621;50.878;4.584;2023-10-31T13:44:34;3.88;;;2.70;;
37781;SDS011;23621;50.878;4.584;2023-10-31T13:47:22;2.50;;;2.30;;
37781;SDS011;23621;50.878;4.584;2023-10-31T13:50:09;3.63;;;2.60;;
37781;SDS011;23621;50.878;4.584;2023-10-31T13:52:56;3.50;;;3.20;;
37781;SDS011;23621;50.878;4.584;2023-10-31T13:55:44;4.75;;;3.50;;
37781;SDS011;23621;50.878;4.584;2023-10-31T13:58:31;5.10;;;4.30;;
37781;SDS011;23621;50.878;4.584;2023-10-31T14:01:18;5.85;;;4.68;;
37781;SDS011;23621;50.878;4.584;2023-10-31T14:04:11;6.28;;;5.68;;
37781;SDS011;23621;50.878;4.584;2023-10-31T14:07:02;7.97;;;6.05;;
37781;SDS011;23621;50.878;4.584;2023-10-31T14:09:50;8.10;;;6.25;;
37781;SDS011;23621;50.878;4.584;2023-10-31T14:12:38;8.20;;;6.13;;
37781;SDS011;23621;50.878;4.584;2023-10-31T14:15:25;6.75;;;6.00;;
37781;SDS011;23621;50.878;4.584;2023-10-31T14:18:13;7.03;;;6.32;;
37781;SDS011;23621;50.878;4.584;2023-10-31T14:21:02;6.47;;;5.85;;
37781;SDS011;23621;50.878;4.584;2023-10-31T14:23:49;6.72;;;5.50;;
37781;SDS011;23621;50.878;4.584;2023-10-31T14:26:49;6.82;;;5.07;;
37781;SDS011;23621;50.878;4.584;2023-10-31T14:29:37;7.38;;;5.13;;
37781;SDS011;23621;50.878;4.584;2023-10-31T14:32:24;4.93;;;4.50;;
37781;SDS011;23621;50.878;4.584;2023-10-31T14:35:11;5.10;;;4.38;;
37781;SDS011;23621;50.878;4.584;2023-10-31T14:37:59;6.82;;;5.15;;
37781;SDS011;23621;50.878;4.584;2023-10-31T14:40:46;7.25;;;4.82;;
37781;SDS011;23621;50.878;4.584;2023-10-31T14:43:33;7.47;;;5.15;;
37781;SDS011;23621;50.878;4.584;2023-10-31T14:46:21;5.18;;;4.40;;
37781;SDS011;23621;50.878;4.584;2023-10-31T14:49:08;5.85;;;4.40;;
37781;SDS011;23621;50.878;4.584;2023-10-31T14:51:56;5.68;;;5.07;;
37781;SDS011;23621;50.878;4.584;2023-10-31T14:54:43;7.32;;;4.82;;
37781;SDS011;23621;50.878;4.584;2023-10-31T14:57:30;6.15;;;5.20;;
37781;SDS011;23621;50.878;4.584;2023-10-31T15:00:18;7.53;;;5.40;;
37781;SDS011;23621;50.878;4.584;2023-10-31T15:03:05;7.80;;;5.43;;
37781;SDS011;23621;50.878;4.584;2023-10-31T15:05:53;11.60;;;6.55;;
37781;SDS011;23621;50.878;4.584;2023-10-31T15:08:40;8.98;;;6.93;;
37781;SDS011;23621;50.878;4.584;2023-10-31T15:11:28;10.02;;;6.55;;
37781;SDS011;23621;50.878;4.584;2023-10-31T15:14:15;9.23;;;7.05;;
37781;SDS011;23621;50.878;4.584;2023-10-31T15:17:02;8.18;;;6.10;;
37781;SDS011;23621;50.878;4.584;2023-10-31T15:19:50;8.77;;;6.75;;
37781;SDS011;23621;50.878;4.584;2023-10-31T15:22:37;7.38;;;5.97;;
37781;SDS011;23621;50.878;4.584;2023-10-31T15:25:08;8.95;;;6.25;;
37781;SDS011;23621;50.878;4.584;2023-10-31T15:27:56;11.25;;;6.50;;
37781;SDS011;23621;50.878;4.584;2023-10-31T15:30:43;9.48;;;6.68;;
37781;SDS011;23621;50.878;4.584;2023-10-31T15:33:31;9.18;;;6.22;;
37781;SDS011;23621;50.878;4.584;2023-10-31T15:36:18;9.90;;;6.25;;
37781;SDS011;23621;50.878;4.584;2023-10-31T15:39:06;8.35;;;6.10;;
37781;SDS011;23621;50.878;4.584;2023-10-31T15:41:54;9.30;;;6.00;;
37781;SDS011;23621;50.878;4.584;2023-10-31T15:44:41;7.05;;;5.82;;
37781;SDS011;23621;50.878;4.584;2023-10-31T15:47:29;8.02;;;5.60;;
37781;SDS011;23621;50.878;4.584;2023-10-31T15:50:16;9.15;;;5.28;;
37781;SDS011;23621;50.878;4.584;2023-10-31T15:53:04;8.10;;;5.25;;
37781;SDS011;23621;50.878;4.584;2023-10-31T15:55:51;9.38;;;5.13;;
37781;SDS011;23621;50.878;4.584;2023-10-31T15:58:40;8.63;;;4.97;;
37781;SDS011;23621;50.878;4.584;2023-10-31T16:01:27;8.13;;;4.68;;
37781;SDS011;23621;50.878;4.584;2023-10-31T16:04:15;6.93;;;4.63;;
37781;SDS011;23621;50.878;4.584;2023-10-31T16:07:03;7.00;;;4.50;;
37781;SDS011;23621;50.878;4.584;2023-10-31T16:09:50;8.10;;;4.70;;
37781;SDS011;23621;50.878;4.584;2023-10-31T16:12:37;7.75;;;4.50;;
37781;SDS011;23621;50.878;4.584;2023-10-31T16:15:25;9.75;;;4.28;;
37781;SDS011;23621;50.878;4.584;2023-10-31T16:18:12;8.32;;;4.85;;
37781;SDS011;23621;50.878;4.584;2023-10-31T16:21:00;9.00;;;4.95;;
37781;SDS011;23621;50.878;4.584;2023-10-31T16:23:48;9.10;;;4.57;;
37781;SDS011;23621;50.878;4.584;2023-10-31T16:26:38;6.80;;;4.60;;
37781;SDS011;23621;50.878;4.584;2023-10-31T16:29:25;7.32;;;4.30;;
37781;SDS011;23621;50.878;4.584;2023-10-31T16:32:13;7.80;;;4.45;;
37781;SDS011;23621;50.878;4.584;2023-10-31T16:35:00;9.35;;;5.05;;
37781;SDS011;23621;50.878;4.584;2023-10-31T16:37:48;8.57;;;4.40;;
37781;SDS011;23621;50.878;4.584;2023-10-31T16:40:35;7.95;;;4.40;;
37781;SDS011;23621;50.878;4.584;2023-10-31T16:43:22;8.80;;;4.20;;
37781;SDS011;23621;50.878;4.584;2023-10-31T16:46:10;9.35;;;4.43;;
37781;SDS011;23621;50.878;4.584;2023-10-31T16:48:57;8.00;;;4.15;;
37781;SDS011;23621;50.878;4.584;2023-10-31T16:51:44;6.00;;;4.20;;
37781;SDS011;23621;50.878;4.584;2023-10-31T16:54:31;5.72;;;4.10;;